Time;durP1;ratioP1;P1;durP2;ratioP2;P2;SDS_P1;SDS_P2;PMS_P1;PMS_P2;Temp;Humidity;BMP_temperature;BMP_pressure;BME280_temperature;BME280_humidity;BME280_pressure;Samples;Min_cycle;Max_cycle;Signal;HPM_P1;HPM_P2
2021/08/21 00:00:06;;;;;;;4.13;1.67;;;;;;;;;;4993635;28;20360;-72
2021/08/21 00:02:33;;;;;;;2.22;1.63;;;;;;;;;;5000413;28;20119;-72
2021/08/21 00:04:59;;;;;;;3.20;1.95;;;;;;;;;;5010218;28;20077;-72
2021/08/21 00:07:25;;;;;;;2.55;1.75;;;;;;;;;;5010392;28;20053;-73
2021/08/21 00:09:51;;;;;;;5.38;1.80;;;;;;;;;;5010238;28;20029;-72
2021/08/21 00:12:16;;;;;;;3.53;1.80;;;;;;;;;;4991342;28;20037;-72
2021/08/21 00:14:42;;;;;;;4.15;1.73;;;;;;;;;;5009507;28;20026;-72
2021/08/21 00:17:07;;;;;;;4.25;1.92;;;;;;;;;;5010213;28;20335;-72
2021/08/21 00:19:33;;;;;;;3.42;1.90;;;;;;;;;;5008662;28;20021;-72
2021/08/21 00:21:58;;;;;;;6.65;1.83;;;;;;;;;;5010201;28;20482;-72
2021/08/21 00:24:25;;;;;;;3.58;1.80;;;;;;;;;;5009980;28;20057;-73
2021/08/21 00:26:51;;;;;;;2.65;1.58;;;;;;;;;;5009976;28;20028;-72
2021/08/21 00:29:16;;;;;;;4.95;1.90;;;;;;;;;;5009827;28;20046;-72
2021/08/21 00:31:41;;;;;;;3.05;1.80;;;;;;;;;;5006525;28;20352;-73
2021/08/21 00:34:07;;;;;;;3.92;1.70;;;;;;;;;;5004320;28;20030;-73
2021/08/21 00:36:32;;;;;;;6.78;1.80;;;;;;;;;;5010187;28;20029;-74
2021/08/21 00:38:58;;;;;;;5.20;2.25;;;;;;;;;;5009590;28;20030;-73
2021/08/21 00:41:23;;;;;;;4.53;2.17;;;;;;;;;;5010226;28;20508;-73
2021/08/21 00:43:50;;;;;;;3.05;1.73;;;;;;;;;;5010093;28;20022;-72
2021/08/21 00:46:15;;;;;;;3.45;2.03;;;;;;;;;;5009872;28;20389;-72
2021/08/21 00:48:41;;;;;;;6.88;1.98;;;;;;;;;;5009886;28;20126;-72
2021/08/21 00:51:06;;;;;;;3.47;2.03;;;;;;;;;;5002095;28;20084;-73
2021/08/21 00:53:32;;;;;;;4.20;1.70;;;;;;;;;;5009611;28;20482;-73
2021/08/21 00:55:59;;;;;;;3.90;1.83;;;;;;;;;;5009858;28;20030;-73
2021/08/21 00:58:26;;;;;;;4.00;1.88;;;;;;;;;;5002009;28;20013;-72
2021/08/21 01:00:53;;;;;;;3.63;1.70;;;;;;;;;;5009659;28;20048;-73
2021/08/21 01:03:18;;;;;;;5.45;1.80;;;;;;;;;;5009239;28;20382;-73
2021/08/21 01:05:44;;;;;;;3.75;1.90;;;;;;;;;;4994634;28;20039;-73
2021/08/21 01:08:11;;;;;;;3.95;2.00;;;;;;;;;;4990914;28;20030;-73
2021/08/21 01:10:36;;;;;;;5.50;2.63;;;;;;;;;;5000301;28;20037;-73
2021/08/21 01:13:02;;;;;;;3.63;1.70;;;;;;;;;;4996371;28;20116;-72
2021/08/21 01:15:28;;;;;;;5.18;2.15;;;;;;;;;;5012965;28;20092;-73
2021/08/21 01:17:55;;;;;;;5.45;2.17;;;;;;;;;;5013429;28;20033;-72
2021/08/21 01:20:21;;;;;;;3.47;2.10;;;;;;;;;;5013071;28;20389;-73
2021/08/21 01:22:47;;;;;;;7.47;2.42;;;;;;;;;;5013573;28;20049;-73
2021/08/21 01:25:24;;;;;;;4.22;2.30;;;;;;;;;;5013491;28;20060;-72
2021/08/21 01:27:49;;;;;;;6.35;2.10;;;;;;;;;;4997633;28;20026;-72
2021/08/21 01:30:15;;;;;;;5.85;2.35;;;;;;;;;;5005804;28;20504;-73
2021/08/21 01:32:42;;;;;;;5.18;2.13;;;;;;;;;;5012572;28;20108;-73
2021/08/21 01:35:08;;;;;;;6.97;2.58;;;;;;;;;;5013172;28;20029;-72
2021/08/21 01:37:34;;;;;;;6.90;2.70;;;;;;;;;;5013206;28;20080;-73
2021/08/21 01:40:00;;;;;;;7.20;2.83;;;;;;;;;;5013388;28;20030;-73
2021/08/21 01:42:26;;;;;;;5.68;2.50;;;;;;;;;;5013163;28;20093;-74
2021/08/21 01:44:52;;;;;;;4.18;2.20;;;;;;;;;;5013082;28;20025;-73
2021/08/21 01:47:19;;;;;;;6.40;2.30;;;;;;;;;;5013068;28;20523;-73
2021/08/21 01:49:56;;;;;;;7.00;2.22;;;;;;;;;;5012501;28;20033;-73
2021/08/21 01:52:21;;;;;;;4.38;2.10;;;;;;;;;;5012659;28;20394;-73
2021/08/21 01:54:46;;;;;;;4.65;2.53;;;;;;;;;;5012673;28;21256;-73
2021/08/21 01:57:12;;;;;;;4.18;2.20;;;;;;;;;;5013042;28;20036;-73
2021/08/21 01:59:40;;;;;;;3.80;2.30;;;;;;;;;;5012648;28;20079;-73
2021/08/21 02:02:09;;;;;;;5.50;2.38;;;;;;;;;;5012194;28;20071;-73
2021/08/21 02:04:35;;;;;;;4.10;2.30;;;;;;;;;;5011937;28;20033;-73
2021/08/21 02:07:01;;;;;;;5.85;2.38;;;;;;;;;;5012716;28;20038;-72
2021/08/21 02:09:28;;;;;;;6.43;2.20;;;;;;;;;;5012102;28;20474;-73
2021/08/21 02:11:56;;;;;;;3.78;1.95;;;;;;;;;;5011613;28;20057;-72
2021/08/21 02:14:22;;;;;;;4.00;2.20;;;;;;;;;;5013017;28;20034;-72
2021/08/21 02:16:53;;;;;;;4.15;2.10;;;;;;;;;;5012428;28;20018;-72
2021/08/21 02:19:20;;;;;;;4.38;1.85;;;;;;;;;;5012724;28;20111;-72
2021/08/21 02:21:46;;;;;;;2.85;1.80;;;;;;;;;;5012090;28;20030;-71
2021/08/21 02:24:12;;;;;;;3.97;2.22;;;;;;;;;;5012282;28;20024;-71
2021/08/21 02:26:43;;;;;;;8.05;2.70;;;;;;;;;;5011821;28;20062;-71
2021/08/21 02:29:12;;;;;;;6.55;2.22;;;;;;;;;;5012455;28;20477;-71
2021/08/21 02:31:38;;;;;;;6.40;2.03;;;;;;;;;;5012046;28;20033;-71
2021/08/21 02:34:04;;;;;;;2.92;2.22;;;;;;;;;;5011716;28;20021;-71
2021/08/21 02:36:30;;;;;;;3.47;2.47;;;;;;;;;;5012095;28;20438;-71
2021/08/21 02:38:56;;;;;;;6.13;2.45;;;;;;;;;;5012011;28;20084;-71
2021/08/21 02:41:23;;;;;;;5.28;3.00;;;;;;;;;;5011984;28;20482;-71
2021/08/21 02:43:49;;;;;;;3.72;2.83;;;;;;;;;;5012004;28;20099;-71
2021/08/21 02:46:14;;;;;;;3.70;2.40;;;;;;;;;;5012265;28;21174;-71
2021/08/21 02:48:40;;;;;;;6.07;2.45;;;;;;;;;;5010589;28;20050;-71
2021/08/21 02:51:05;;;;;;;3.72;2.20;;;;;;;;;;5011368;28;20044;-72
2021/08/21 02:53:31;;;;;;;2.90;1.80;;;;;;;;;;5011547;28;20481;-72
2021/08/21 02:55:56;;;;;;;3.28;1.90;;;;;;;;;;5011353;28;20085;-71
2021/08/21 02:58:22;;;;;;;3.55;2.22;;;;;;;;;;5011974;28;20060;-72
2021/08/21 03:00:48;;;;;;;3.47;2.20;;;;;;;;;;5011764;28;20030;-71
2021/08/21 03:03:13;;;;;;;4.18;2.35;;;;;;;;;;5011201;28;20029;-72
2021/08/21 03:05:40;;;;;;;5.30;2.42;;;;;;;;;;5010748;28;20038;-72
2021/08/21 03:08:05;;;;;;;4.13;2.45;;;;;;;;;;5003697;28;20038;-73
2021/08/21 03:10:31;;;;;;;6.75;2.53;;;;;;;;;;5011248;28;20030;-72
2021/08/21 03:12:58;;;;;;;4.35;2.50;;;;;;;;;;5011461;28;20037;-72
2021/08/21 03:15:24;;;;;;;5.70;2.40;;;;;;;;;;5010978;28;20037;-71
2021/08/21 03:17:51;;;;;;;4.30;2.10;;;;;;;;;;5011385;28;20025;-71
2021/08/21 03:20:16;;;;;;;5.13;2.15;;;;;;;;;;4999723;28;20045;-71
2021/08/21 03:22:41;;;;;;;7.40;2.53;;;;;;;;;;5007675;28;20030;-72
2021/08/21 03:25:07;;;;;;;4.50;2.58;;;;;;;;;;5003861;28;20034;-71
2021/08/21 03:27:33;;;;;;;4.88;2.70;;;;;;;;;;5002236;28;20386;-71
2021/08/21 03:29:58;;;;;;;5.63;2.60;;;;;;;;;;5011195;28;20581;-71
2021/08/21 03:32:24;;;;;;;4.82;2.72;;;;;;;;;;5010683;28;20025;-71
2021/08/21 03:34:49;;;;;;;8.18;2.85;;;;;;;;;;5010395;28;20315;-71
2021/08/21 03:37:14;;;;;;;4.00;2.90;;;;;;;;;;5002278;28;20101;-71
2021/08/21 03:39:40;;;;;;;6.68;2.78;;;;;;;;;;4999138;28;20421;-71
2021/08/21 03:42:06;;;;;;;5.03;2.92;;;;;;;;;;5010984;28;20476;-72
2021/08/21 03:44:32;;;;;;;7.47;3.05;;;;;;;;;;5010649;28;20029;-71
2021/08/21 03:46:58;;;;;;;4.38;3.10;;;;;;;;;;5010508;28;20022;-71
2021/08/21 03:49:23;;;;;;;6.15;2.90;;;;;;;;;;5010936;28;20034;-71
2021/08/21 03:51:49;;;;;;;6.47;3.40;;;;;;;;;;5010134;28;20029;-71
2021/08/21 03:54:14;;;;;;;5.30;3.10;;;;;;;;;;5010815;28;20466;-71
2021/08/21 03:56:40;;;;;;;6.63;3.00;;;;;;;;;;5010667;28;20017;-71
2021/08/21 03:59:06;;;;;;;6.30;2.83;;;;;;;;;;5010379;28;20516;-71
2021/08/21 04:01:32;;;;;;;5.40;2.50;;;;;;;;;;5009466;28;20351;-71
2021/08/21 04:03:57;;;;;;;4.25;2.25;;;;;;;;;;5010065;28;20069;-71
2021/08/21 04:06:23;;;;;;;3.53;2.30;;;;;;;;;;5010063;28;20382;-71
2021/08/21 04:08:48;;;;;;;3.33;2.40;;;;;;;;;;5010321;28;20097;-72
2021/08/21 04:11:14;;;;;;;7.70;2.92;;;;;;;;;;5010072;28;20092;-71
2021/08/21 04:13:40;;;;;;;8.82;3.30;;;;;;;;;;5010354;28;20371;-71
2021/08/21 04:16:05;;;;;;;5.68;3.47;;;;;;;;;;5000886;28;20058;-71
2021/08/21 04:18:30;;;;;;;6.47;3.22;;;;;;;;;;5007275;28;20026;-71
2021/08/21 04:20:57;;;;;;;7.60;3.10;;;;;;;;;;4998012;28;20036;-71
2021/08/21 04:23:23;;;;;;;7.57;3.03;;;;;;;;;;5010132;28;20026;-71
2021/08/21 04:25:48;;;;;;;6.15;3.40;;;;;;;;;;5009942;28;20037;-71
2021/08/21 04:28:14;;;;;;;6.47;2.72;;;;;;;;;;5010379;28;20499;-71
2021/08/21 04:30:39;;;;;;;7.57;2.90;;;;;;;;;;5001714;28;20029;-71
2021/08/21 04:33:05;;;;;;;7.55;2.63;;;;;;;;;;5009943;28;20045;-71
2021/08/21 04:35:30;;;;;;;3.95;2.78;;;;;;;;;;5009732;28;20105;-71
2021/08/21 04:37:55;;;;;;;6.63;3.00;;;;;;;;;;5010261;28;20466;-71
2021/08/21 04:40:22;;;;;;;4.57;2.30;;;;;;;;;;5010273;28;20029;-71
2021/08/21 04:42:48;;;;;;;4.10;2.28;;;;;;;;;;5012566;28;20061;-71
2021/08/21 04:45:13;;;;;;;3.83;2.10;;;;;;;;;;5004256;28;20018;-71
2021/08/21 04:47:39;;;;;;;3.67;2.08;;;;;;;;;;5007799;28;20044;-71
2021/08/21 04:50:05;;;;;;;3.78;2.30;;;;;;;;;;5013807;28;20022;-71
2021/08/21 04:52:31;;;;;;;4.55;2.15;;;;;;;;;;5013788;28;20168;-71
2021/08/21 04:54:57;;;;;;;3.72;2.10;;;;;;;;;;5013519;28;20504;-72
2021/08/21 04:57:22;;;;;;;2.50;1.98;;;;;;;;;;5012689;28;20033;-71
2021/08/21 04:59:48;;;;;;;2.97;1.88;;;;;;;;;;5013445;28;20021;-72
2021/08/21 05:02:13;;;;;;;2.88;1.77;;;;;;;;;;5005873;28;20385;-72
2021/08/21 05:04:39;;;;;;;4.50;1.73;;;;;;;;;;5013513;28;20025;-72
2021/08/21 05:07:05;;;;;;;5.22;1.70;;;;;;;;;;5013151;28;20534;-72
2021/08/21 05:09:31;;;;;;;4.15;1.65;;;;;;;;;;5013815;28;20030;-72
2021/08/21 05:11:56;;;;;;;6.65;1.95;;;;;;;;;;5013479;28;20507;-72
2021/08/21 05:14:22;;;;;;;2.88;1.60;;;;;;;;;;5013794;28;20076;-72
2021/08/21 05:16:47;;;;;;;4.75;1.48;;;;;;;;;;5013394;28;20041;-71
2021/08/21 05:24:46;;;;;;;2.22;1.20;;;;;;;;;;5012470;28;20117;-73
2021/08/21 05:27:12;;;;;;;4.68;1.35;;;;;;;;;;5013961;28;20105;-72
2021/08/21 05:29:38;;;;;;;1.98;1.15;;;;;;;;;;5014299;28;20509;-72
2021/08/21 05:32:06;;;;;;;1.80;1.15;;;;;;;;;;5005468;28;20480;-72
2021/08/21 05:34:32;;;;;;;1.85;1.40;;;;;;;;;;5013528;28;20026;-72
2021/08/21 05:36:57;;;;;;;2.00;1.02;;;;;;;;;;5013564;28;20440;-72
2021/08/21 05:39:23;;;;;;;2.60;1.30;;;;;;;;;;5013490;28;20030;-72
2021/08/21 05:41:49;;;;;;;1.48;1.08;;;;;;;;;;5013265;28;20037;-73
2021/08/21 05:44:14;;;;;;;4.53;1.20;;;;;;;;;;5013330;28;20525;-73
2021/08/21 05:46:40;;;;;;;2.20;1.33;;;;;;;;;;5013297;28;20057;-72
2021/08/21 05:49:05;;;;;;;3.13;1.20;;;;;;;;;;4998527;28;20030;-73
2021/08/21 05:51:31;;;;;;;3.05;1.00;;;;;;;;;;5002256;28;20029;-72
2021/08/21 05:53:57;;;;;;;2.05;1.10;;;;;;;;;;5013175;28;20033;-73
2021/08/21 05:56:23;;;;;;;4.32;1.15;;;;;;;;;;4994060;28;20058;-72
2021/08/21 05:58:48;;;;;;;4.53;1.17;;;;;;;;;;5013017;28;20025;-73
2021/08/21 06:01:14;;;;;;;3.97;1.10;;;;;;;;;;5011801;28;20026;-73
2021/08/21 06:03:39;;;;;;;3.28;1.20;;;;;;;;;;5013041;28;20057;-73
2021/08/21 06:06:04;;;;;;;2.95;1.48;;;;;;;;;;5012719;28;20131;-72
2021/08/21 06:08:30;;;;;;;1.75;1.10;;;;;;;;;;5013127;28;20381;-73
2021/08/21 06:10:57;;;;;;;2.55;1.15;;;;;;;;;;5013145;28;20042;-73
2021/08/21 06:13:24;;;;;;;1.67;1.20;;;;;;;;;;5013314;28;20470;-74
2021/08/21 06:15:49;;;;;;;1.88;1.08;;;;;;;;;;5012434;28;20409;-74
2021/08/21 06:18:15;;;;;;;2.45;1.02;;;;;;;;;;5012990;28;20105;-72
2021/08/21 06:20:40;;;;;;;3.67;1.13;;;;;;;;;;5012279;28;20064;-73
2021/08/21 06:23:06;;;;;;;1.85;0.95;;;;;;;;;;5003744;28;20037;-73
2021/08/21 06:25:31;;;;;;;3.47;1.02;;;;;;;;;;5006921;28;20033;-72
2021/08/21 06:27:57;;;;;;;1.45;0.98;;;;;;;;;;5012840;28;20038;-74
2021/08/21 06:30:22;;;;;;;1.67;1.00;;;;;;;;;;5012647;28;20037;-73
2021/08/21 06:32:48;;;;;;;5.40;1.10;;;;;;;;;;4995060;28;20087;-72
2021/08/21 06:35:13;;;;;;;2.53;1.00;;;;;;;;;;5012356;28;20028;-73
2021/08/21 06:37:39;;;;;;;1.67;1.00;;;;;;;;;;5008220;28;20392;-73
2021/08/21 06:40:05;;;;;;;3.30;1.10;;;;;;;;;;5009761;28;20425;-73
2021/08/21 06:42:30;;;;;;;1.52;1.00;;;;;;;;;;4998434;28;20025;-73
2021/08/21 06:44:56;;;;;;;2.17;0.80;;;;;;;;;;5011977;28;20045;-73
2021/08/21 06:47:21;;;;;;;5.50;1.00;;;;;;;;;;5011649;28;20101;-73
2021/08/21 06:49:47;;;;;;;1.70;0.80;;;;;;;;;;5011382;28;20022;-74
2021/08/21 06:52:12;;;;;;;3.80;1.10;;;;;;;;;;5011617;28;20026;-74
2021/08/21 06:54:38;;;;;;;1.92;0.93;;;;;;;;;;5012193;28;20034;-72
2021/08/21 06:57:03;;;;;;;1.55;0.82;;;;;;;;;;5011622;28;20537;-73
2021/08/21 06:59:29;;;;;;;2.00;1.10;;;;;;;;;;5011840;28;20474;-73
2021/08/21 07:01:54;;;;;;;1.17;0.80;;;;;;;;;;5010162;28;20040;-73
2021/08/21 07:04:19;;;;;;;3.42;1.02;;;;;;;;;;5011599;28;20120;-73
2021/08/21 07:06:45;;;;;;;3.28;0.90;;;;;;;;;;5011150;28;20065;-74
2021/08/21 07:09:10;;;;;;;1.13;0.80;;;;;;;;;;5011406;28;20116;-74
2021/08/21 07:11:36;;;;;;;3.08;0.85;;;;;;;;;;5011039;28;20030;-75
2021/08/21 07:14:02;;;;;;;1.40;0.90;;;;;;;;;;5010373;28;20441;-74
2021/08/21 07:16:27;;;;;;;1.65;1.00;;;;;;;;;;5006848;28;20030;-73
2021/08/21 07:18:54;;;;;;;2.08;0.90;;;;;;;;;;5010298;28;20508;-75
2021/08/21 07:21:21;;;;;;;2.30;0.88;;;;;;;;;;5011140;28;20025;-75
2021/08/21 07:23:47;;;;;;;2.78;0.88;;;;;;;;;;5009353;28;20116;-75
2021/08/21 07:26:13;;;;;;;1.77;0.90;;;;;;;;;;5011951;28;20072;-73
2021/08/21 07:28:38;;;;;;;1.67;0.90;;;;;;;;;;5011019;28;20049;-75
2021/08/21 07:31:04;;;;;;;2.90;1.08;;;;;;;;;;5006756;28;20440;-74
2021/08/21 07:33:29;;;;;;;1.70;0.80;;;;;;;;;;5014826;28;20022;-73
2021/08/21 07:35:55;;;;;;;2.03;0.98;;;;;;;;;;5013782;28;20022;-74
2021/08/21 07:38:20;;;;;;;1.95;0.95;;;;;;;;;;5030875;28;20094;-75
2021/08/21 07:40:47;;;;;;;1.77;0.77;;;;;;;;;;5011545;28;20416;-77
2021/08/21 07:43:12;;;;;;;1.27;0.90;;;;;;;;;;5011146;28;20370;-76
2021/08/21 07:45:38;;;;;;;1.98;0.70;;;;;;;;;;5011560;28;20143;-75
2021/08/21 07:48:04;;;;;;;2.13;0.73;;;;;;;;;;5011831;28;20037;-77
2021/08/21 07:50:29;;;;;;;2.58;0.93;;;;;;;;;;5011550;28;20546;-76
2021/08/21 07:52:55;;;;;;;1.23;0.80;;;;;;;;;;5011723;28;20118;-77
2021/08/21 07:55:20;;;;;;;1.40;0.85;;;;;;;;;;5011717;28;20469;-76
2021/08/21 07:57:46;;;;;;;1.00;0.70;;;;;;;;;;5011471;28;20029;-74
2021/08/21 08:00:12;;;;;;;1.40;0.77;;;;;;;;;;5010569;28;20592;-77
2021/08/21 08:02:41;;;;;;;3.60;0.75;;;;;;;;;;5011854;28;20024;-75
2021/08/21 08:05:08;;;;;;;1.58;0.70;;;;;;;;;;5014026;28;20045;-77
2021/08/21 08:07:34;;;;;;;1.58;0.68;;;;;;;;;;5010568;28;20072;-78
2021/08/21 08:09:59;;;;;;;1.35;0.70;;;;;;;;;;5010069;28;20081;-79
2021/08/21 08:12:25;;;;;;;0.82;0.68;;;;;;;;;;5011116;28;20052;-75
2021/08/21 08:14:50;;;;;;;1.42;0.60;;;;;;;;;;5010980;28;20025;-72
2021/08/21 08:17:16;;;;;;;2.97;0.80;;;;;;;;;;5011066;28;20038;-73
2021/08/21 08:19:41;;;;;;;1.13;0.70;;;;;;;;;;5010602;28;20493;-74
2021/08/21 08:22:07;;;;;;;1.08;0.75;;;;;;;;;;5010967;28;20053;-73
2021/08/21 08:24:32;;;;;;;1.35;0.70;;;;;;;;;;5010542;28;20113;-72
2021/08/21 08:26:58;;;;;;;2.97;0.90;;;;;;;;;;4992946;28;20424;-72
2021/08/21 08:29:23;;;;;;;1.42;0.73;;;;;;;;;;5010537;28;20037;-73
2021/08/21 08:31:49;;;;;;;1.73;1.00;;;;;;;;;;5010687;28;20037;-72
2021/08/21 08:34:14;;;;;;;1.05;0.70;;;;;;;;;;5011249;28;20079;-73
2021/08/21 08:36:39;;;;;;;0.73;0.60;;;;;;;;;;5011098;28;20057;-74
2021/08/21 08:39:05;;;;;;;2.40;0.63;;;;;;;;;;5010635;28;20113;-73
2021/08/21 08:41:31;;;;;;;0.65;0.50;;;;;;;;;;5010779;28;20041;-74
2021/08/21 08:43:59;;;;;;;2.47;0.55;;;;;;;;;;5010800;28;20025;-74
2021/08/21 08:46:24;;;;;;;1.33;0.60;;;;;;;;;;5009508;28;20054;-74
2021/08/21 08:48:50;;;;;;;1.55;0.65;;;;;;;;;;5010631;28;20089;-72
2021/08/21 08:51:17;;;;;;;1.40;0.60;;;;;;;;;;5003694;28;20084;-75
2021/08/21 08:53:42;;;;;;;0.80;0.65;;;;;;;;;;5008790;28;20489;-74
2021/08/21 08:56:08;;;;;;;0.63;0.55;;;;;;;;;;5010855;28;20101;-75
2021/08/21 08:58:33;;;;;;;1.38;0.55;;;;;;;;;;5008966;28;20029;-75
2021/08/21 09:00:59;;;;;;;0.70;0.47;;;;;;;;;;5009183;28;20109;-75
2021/08/21 09:03:27;;;;;;;0.38;0.38;;;;;;;;;;4993099;28;20037;-74
2021/08/21 09:05:53;;;;;;;0.68;0.47;;;;;;;;;;5009170;28;20078;-74
2021/08/21 09:08:26;;;;;;;1.20;0.50;;;;;;;;;;5010017;28;20048;-74
2021/08/21 09:10:51;;;;;;;0.70;0.52;;;;;;;;;;5009276;28;20104;-74
2021/08/21 09:13:18;;;;;;;1.23;0.47;;;;;;;;;;5010572;28;20529;-74
2021/08/21 09:15:49;;;;;;;0.40;0.40;;;;;;;;;;5016613;28;20438;-74
2021/08/21 09:18:19;;;;;;;1.80;0.45;;;;;;;;;;5010432;28;20040;-75
2021/08/21 09:20:47;;;;;;;0.60;0.40;;;;;;;;;;5010975;28;20026;-75
2021/08/21 09:23:17;;;;;;;0.82;0.40;;;;;;;;;;5010403;28;20037;-76
2021/08/21 09:25:43;;;;;;;1.10;0.60;;;;;;;;;;5010925;28;20038;-75
2021/08/21 09:28:26;;;;;;;1.65;0.82;;;;;;;;;;5010896;28;20026;-75
2021/08/21 09:31:02;;;;;;;1.52;0.65;;;;;;;;;;5010014;28;20017;-74
2021/08/21 09:33:28;;;;;;;0.57;0.50;;;;;;;;;;5010530;28;20033;-75
2021/08/21 09:35:54;;;;;;;0.45;0.40;;;;;;;;;;5012422;28;20032;-75
2021/08/21 09:38:22;;;;;;;0.77;0.50;;;;;;;;;;5013100;28;20382;-75
2021/08/21 09:40:48;;;;;;;2.30;0.63;;;;;;;;;;5013674;28;20056;-76
2021/08/21 09:43:21;;;;;;;0.80;0.32;;;;;;;;;;5015615;28;20470;-75
2021/08/21 09:45:48;;;;;;;2.53;0.40;;;;;;;;;;5013910;28;20666;-75
2021/08/21 09:48:13;;;;;;;2.53;0.40;;;;;;;;;;5022006;28;20062;-77
2021/08/21 09:50:43;;;;;;;0.73;0.40;;;;;;;;;;5009474;28;20061;-75
2021/08/21 09:53:11;;;;;;;1.02;0.50;;;;;;;;;;5013884;28;20040;-76
2021/08/21 09:55:37;;;;;;;0.77;0.60;;;;;;;;;;5013298;28;20083;-76
2021/08/21 09:58:05;;;;;;;1.55;0.40;;;;;;;;;;5018493;28;20053;-76
2021/08/21 10:00:33;;;;;;;1.38;0.50;;;;;;;;;;5011308;28;21091;-75
2021/08/21 10:02:59;;;;;;;1.00;0.50;;;;;;;;;;5012886;28;20370;-74
2021/08/21 10:05:26;;;;;;;0.40;0.40;;;;;;;;;;4995533;28;20041;-73
2021/08/21 10:08:05;;;;;;;1.45;0.40;;;;;;;;;;5019742;28;20030;-76
2021/08/21 10:10:50;;;;;;;0.60;0.50;;;;;;;;;;5008997;28;20418;-74
2021/08/21 10:13:30;;;;;;;1.05;0.40;;;;;;;;;;4995512;28;20033;-75
2021/08/21 10:15:56;;;;;;;0.38;0.38;;;;;;;;;;5012409;28;20072;-76
2021/08/21 10:18:23;;;;;;;0.70;0.55;;;;;;;;;;5013805;28;20033;-73
2021/08/21 10:20:50;;;;;;;0.43;0.30;;;;;;;;;;5013237;28;20462;-76
2021/08/21 10:23:19;;;;;;;0.45;0.45;;;;;;;;;;5017182;28;20504;-75
2021/08/21 10:25:54;;;;;;;0.57;0.40;;;;;;;;;;5013729;28;20019;-75
2021/08/21 10:28:21;;;;;;;0.38;0.35;;;;;;;;;;5013392;28;20040;-75
2021/08/21 10:30:51;;;;;;;0.40;0.40;;;;;;;;;;5012625;28;20233;-76
2021/08/21 10:33:17;;;;;;;0.50;0.30;;;;;;;;;;5013578;28;20034;-76
2021/08/21 10:35:47;;;;;;;0.50;0.20;;;;;;;;;;5013216;28;20045;-73
2021/08/21 10:38:35;;;;;;;0.50;0.47;;;;;;;;;;5012813;28;20036;-75
2021/08/21 10:41:26;;;;;;;0.40;0.40;;;;;;;;;;5013133;28;20034;-75
2021/08/21 10:43:54;;;;;;;0.45;0.38;;;;;;;;;;5012811;28;20034;-75
2021/08/21 10:46:29;;;;;;;0.20;0.20;;;;;;;;;;5010933;28;20038;-75
2021/08/21 10:48:59;;;;;;;0.30;0.30;;;;;;;;;;5012156;28;20050;-74
2021/08/21 10:51:32;;;;;;;0.30;0.30;;;;;;;;;;5010961;28;20057;-76
2021/08/21 10:53:59;;;;;;;0.93;0.30;;;;;;;;;;5012181;28;20492;-75
2021/08/21 10:56:38;;;;;;;0.47;0.40;;;;;;;;;;5012920;28;20033;-75
2021/08/21 10:59:04;;;;;;;0.45;0.35;;;;;;;;;;5012470;28;20068;-75
2021/08/21 11:01:30;;;;;;;0.65;0.45;;;;;;;;;;5012382;28;20061;-75
2021/08/21 11:03:55;;;;;;;0.30;0.30;;;;;;;;;;5012136;28;20112;-76
2021/08/21 11:06:35;;;;;;;0.63;0.50;;;;;;;;;;5011688;28;20179;-75
2021/08/21 11:09:04;;;;;;;2.65;0.75;;;;;;;;;;5006716;28;20030;-75
2021/08/21 11:11:46;;;;;;;0.43;0.40;;;;;;;;;;4993520;28;20474;-75
2021/08/21 11:14:22;;;;;;;2.75;0.40;;;;;;;;;;5007143;28;20105;-75
2021/08/21 11:16:54;;;;;;;0.32;0.32;;;;;;;;;;5011643;28;20021;-75
2021/08/21 11:19:22;;;;;;;0.35;0.30;;;;;;;;;;5011768;28;20032;-76
2021/08/21 11:21:49;;;;;;;0.40;0.30;;;;;;;;;;5012275;28;20113;-74
2021/08/21 11:24:23;;;;;;;0.50;0.30;;;;;;;;;;5011588;28;20430;-76
2021/08/21 11:27:09;;;;;;;1.45;0.50;;;;;;;;;;5008244;28;20026;-76
2021/08/21 11:30:07;;;;;;;0.40;0.30;;;;;;;;;;5012785;28;20442;-74
2021/08/21 11:32:41;;;;;;;1.13;0.32;;;;;;;;;;5010692;28;20029;-75
2021/08/21 11:35:07;;;;;;;0.85;0.30;;;;;;;;;;5011228;28;20086;-75
2021/08/21 11:37:35;;;;;;;0.32;0.32;;;;;;;;;;5006914;28;20026;-75
2021/08/21 11:40:01;;;;;;;0.30;0.30;;;;;;;;;;5011767;28;20465;-77
2021/08/21 11:42:46;;;;;;;0.90;0.40;;;;;;;;;;5010735;28;20044;-78
2021/08/21 11:45:15;;;;;;;0.57;0.40;;;;;;;;;;5010827;28;20053;-75
2021/08/21 11:47:43;;;;;;;4.07;0.35;;;;;;;;;;5009777;28;20540;-76
2021/08/21 11:50:23;;;;;;;2.83;0.40;;;;;;;;;;5011251;28;20466;-75
2021/08/21 11:52:50;;;;;;;0.40;0.30;;;;;;;;;;4990878;28;20033;-76
2021/08/21 11:55:16;;;;;;;0.75;0.50;;;;;;;;;;5005185;28;20053;-77
2021/08/21 11:57:45;;;;;;;0.20;0.20;;;;;;;;;;5010738;28;20097;-77
2021/08/21 12:00:18;;;;;;;0.28;0.28;;;;;;;;;;5011467;28;20486;-75
2021/08/21 12:02:49;;;;;;;0.30;0.30;;;;;;;;;;5011966;28;20041;-78
2021/08/21 12:05:28;;;;;;;0.40;0.40;;;;;;;;;;5011007;28;20028;-75
2021/08/21 12:07:54;;;;;;;0.55;0.40;;;;;;;;;;5011145;28;20034;-78
2021/08/21 12:10:19;;;;;;;0.35;0.35;;;;;;;;;;5011176;28;20544;-78
2021/08/21 12:12:57;;;;;;;0.52;0.20;;;;;;;;;;5011002;28;20142;-77
2021/08/21 12:15:27;;;;;;;1.60;0.50;;;;;;;;;;5011087;28;20390;-79
2021/08/21 12:17:54;;;;;;;1.85;0.50;;;;;;;;;;5011200;28;20034;-78
2021/08/21 12:20:19;;;;;;;0.47;0.30;;;;;;;;;;5010798;28;20022;-78
2021/08/21 12:22:45;;;;;;;0.28;0.20;;;;;;;;;;5010940;28;20540;-78
2021/08/21 12:25:10;;;;;;;2.53;0.50;;;;;;;;;;5010827;28;20565;-78
2021/08/21 12:27:36;;;;;;;2.13;0.40;;;;;;;;;;5010831;28;20083;-79
2021/08/21 12:30:19;;;;;;;2.47;0.30;;;;;;;;;;5010484;28;20402;-77
2021/08/21 12:32:45;;;;;;;0.30;0.30;;;;;;;;;;5006446;28;20029;-78
2021/08/21 12:35:18;;;;;;;0.50;0.40;;;;;;;;;;5010598;28;20486;-78
2021/08/21 12:37:44;;;;;;;;;;;;;;;;;;5011385;28;20030;-79
2021/08/21 12:40:15;;;;;;;0.30;0.30;;;;;;;;;;5010485;28;19909;-77
2021/08/21 12:42:42;;;;;;;0.20;0.20;;;;;;;;;;5010853;28;20026;-74
2021/08/21 12:45:24;;;;;;;1.17;0.32;;;;;;;;;;5010518;28;20022;-77
2021/08/21 12:47:51;;;;;;;0.30;0.30;;;;;;;;;;5010704;28;20030;-77
2021/08/21 12:50:18;;;;;;;0.30;0.30;;;;;;;;;;5010565;28;20097;-78
2021/08/21 12:53:03;;;;;;;0.47;0.30;;;;;;;;;;5010327;28;20044;-78
2021/08/21 12:55:28;;;;;;;0.73;0.32;;;;;;;;;;4992985;28;20024;-78
2021/08/21 12:58:03;;;;;;;0.38;0.30;;;;;;;;;;5010630;28;20033;-77
2021/08/21 13:00:29;;;;;;;1.02;0.30;;;;;;;;;;5010464;28;20018;-77
2021/08/21 13:02:55;;;;;;;1.15;0.38;;;;;;;;;;5010873;28;20075;-77
2021/08/21 13:05:28;;;;;;;0.30;0.30;;;;;;;;;;5010568;28;20030;-77
2021/08/21 13:08:02;;;;;;;1.80;0.40;;;;;;;;;;5010500;28;20470;-78
2021/08/21 13:10:28;;;;;;;0.40;0.40;;;;;;;;;;5012159;28;20037;-78
2021/08/21 13:12:54;;;;;;;0.20;0.20;;;;;;;;;;5014343;28;20124;-78
2021/08/21 13:15:20;;;;;;;0.30;0.30;;;;;;;;;;5014161;28;20030;-76
2021/08/21 13:17:46;;;;;;;0.38;0.30;;;;;;;;;;5014304;28;20025;-78
2021/08/21 13:20:14;;;;;;;0.20;0.20;;;;;;;;;;5013878;28;20064;-78
2021/08/21 13:22:41;;;;;;;0.10;0.10;;;;;;;;;;5014103;28;20022;-78
2021/08/21 13:25:07;;;;;;;0.10;0.10;;;;;;;;;;5013857;28;20021;-79
2021/08/21 13:27:34;;;;;;;0.20;0.20;;;;;;;;;;5014050;28;20037;-78
2021/08/21 13:30:00;;;;;;;1.55;0.40;;;;;;;;;;5013613;28;20025;-78
2021/08/21 13:32:26;;;;;;;0.73;0.40;;;;;;;;;;5013944;28;20030;-77
2021/08/21 13:34:51;;;;;;;0.50;0.40;;;;;;;;;;5013939;28;20034;-79
2021/08/21 13:37:18;;;;;;;0.30;0.20;;;;;;;;;;5013674;28;20030;-79
2021/08/21 13:39:43;;;;;;;0.20;0.20;;;;;;;;;;5014027;28;20030;-80
2021/08/21 13:42:09;;;;;;;0.50;0.30;;;;;;;;;;5014025;28;20032;-77
2021/08/21 13:44:34;;;;;;;0.43;0.35;;;;;;;;;;5013912;28;20018;-79
2021/08/21 13:47:00;;;;;;;0.40;0.20;;;;;;;;;;5013580;28;20073;-78
2021/08/21 13:49:26;;;;;;;0.28;0.28;;;;;;;;;;5013691;28;20032;-80
2021/08/21 13:51:52;;;;;;;0.55;0.25;;;;;;;;;;5013558;28;20053;-79
2021/08/21 13:54:17;;;;;;;1.50;0.40;;;;;;;;;;5013444;28;20061;-79
2021/08/21 13:56:43;;;;;;;0.38;0.38;;;;;;;;;;5013593;28;20024;-78
2021/08/21 13:59:08;;;;;;;0.55;0.30;;;;;;;;;;5013288;28;20407;-78
2021/08/21 14:01:34;;;;;;;0.28;0.28;;;;;;;;;;5013360;28;20133;-79
2021/08/21 14:03:59;;;;;;;0.35;0.28;;;;;;;;;;5013319;28;20034;-78
2021/08/21 14:06:25;;;;;;;0.70;0.40;;;;;;;;;;5013421;28;20069;-78
2021/08/21 14:08:50;;;;;;;0.32;0.30;;;;;;;;;;5013573;28;20045;-79
2021/08/21 14:11:16;;;;;;;0.40;0.40;;;;;;;;;;5013310;28;20084;-78
2021/08/21 14:13:42;;;;;;;1.45;0.40;;;;;;;;;;5013436;28;20308;-79
2021/08/21 14:16:07;;;;;;;0.40;0.40;;;;;;;;;;5012867;28;20033;-79
2021/08/21 14:18:33;;;;;;;0.45;0.40;;;;;;;;;;5013227;28;20061;-80
2021/08/21 14:20:58;;;;;;;0.30;0.30;;;;;;;;;;5012583;28;20474;-78
2021/08/21 14:23:24;;;;;;;0.73;0.40;;;;;;;;;;5012786;28;20097;-79
2021/08/21 14:25:50;;;;;;;0.30;0.30;;;;;;;;;;5013014;28;20030;-80
2021/08/21 14:28:16;;;;;;;0.40;0.40;;;;;;;;;;5012813;28;20124;-79
2021/08/21 14:30:42;;;;;;;0.30;0.30;;;;;;;;;;5012989;28;20026;-79
2021/08/21 14:33:09;;;;;;;1.00;0.35;;;;;;;;;;5012774;28;20025;-78
2021/08/21 14:35:35;;;;;;;2.88;0.35;;;;;;;;;;5012897;28;20029;-79
2021/08/21 14:38:00;;;;;;;0.30;0.30;;;;;;;;;;5012847;28;20091;-78
2021/08/21 14:40:26;;;;;;;0.30;0.30;;;;;;;;;;5013114;28;20018;-79
2021/08/21 14:42:52;;;;;;;0.93;0.40;;;;;;;;;;5013153;28;20514;-78
2021/08/21 14:45:17;;;;;;;0.40;0.28;;;;;;;;;;5012646;28;20156;-78
2021/08/21 14:47:43;;;;;;;0.90;0.40;;;;;;;;;;5013104;28;20045;-79